Victor, Washington
Current Conditions -  °F | °C
As of 5:53 PM on Saturday 25 Oct 2014 (Local Time) from KTIW Reporting Station
Light Rain Light Rain  
Wind Chill: 60°   Ceiling: 4800
Heat Index: 60°   Visibility: 10mi
Dew Point: 50°   Wind: 22mph
Humidity: 69%   Direction: 180°S
Pressure: 29.28"   Gusts: 40mph
Location:  47.2986°N, 122.616°W
Report Text: KTIW 260053Z 18019G35KT 10SM -RA SCT041 BKN048 OVC085 16/10 A2928 RMK AO2 PK WND 19040/0033 RAB28 SLP915 P0000 T01560100
Loading
Personal Weather Stations






























Interactive Weather Map
Tropical Storm Tracking
New forecast layout! Learn more

10-Day Weather Forecast

Advertisements
Track Severe Weather on mobile